Kezdőlap
METAR-TAF:

METAR-TAF

Repülőterek :

Versec, Szerbia

földrajzi szélesség: 45-09N, földrajzi hosszúság: 021-19E, magasság: 83 m

Jelenlegi meteorológiai megfigyelések

A jelentés 28 perccel ezelõtt készült, 09:00 UTC
Különbözõ irányokból fújó szél 3 kt
Hőmérséklet 6°C
Páratartalom 75%
Légköri nyomás 1029 hPa
Látótávolság: 8000 m

METAR: LYVR 160900Z VRB03KT 8000 NSC 06/02 Q1029 NOSIG

Idő: 10:28 (09:28 UTC)

Előrejelzés

A jelentés 4 órával és 28 perccel ezelõtt készült, 05:00 UTC
Az előrejelzés 16-én 06 óra UTC és 17-én 06 óra UTC között érvényes
Délkeleti szél 8 kt
Látótávolság 10 km, vagy több
Szórványos felhőzet 4000 lábon
esõ

TAF: LYVR 160500Z 1606/1706 14008KT 9999 SCT040 TX14/1612Z TN02/1705Z TEMPO1616/1619 RA

Meteorológiai megfigyelések és előrejelzések több, mint 4000 repülőtéren (METAR és TAF jelentéseket).

A térképen piros és sárga pontok jelzik az elérhető meteorológiai állomásokat.

Mozgassa az egeret a pont fölött, hogy megjelenjen az állomás neve.

Azután kattintson az időjárási megfigyelések és előrejelzések megtekintéséhez.

A térkép megváltoztatása: kattintson a fekete keresztel jelölt zöld gombra ráközelítéshez, a vonallal jelölt zöld gombra távolításhoz, vagy a zöld nyilakra a szomszédos térképek eléréséhez.


METAR-TAF: